createdAt,value
2023-01-05T00:00:16.615Z,3.400
2023-01-05T00:03:15.301Z,3.200
2023-01-05T00:04:15.691Z,3.599
2023-01-05T00:05:15.229Z,3.200
2023-01-05T00:06:15.496Z,2.900
2023-01-05T00:07:15.164Z,3.599
2023-01-05T00:08:15.019Z,3.200
2023-01-05T00:09:15.344Z,3.5
2023-01-05T00:10:15.469Z,3.099
2023-01-05T00:11:15.581Z,3.599
2023-01-05T00:12:15.491Z,3.5
2023-01-05T00:13:15.405Z,3.099
2023-01-05T00:14:15.640Z,3.400
2023-01-05T00:16:15.017Z,3.299
2023-01-05T00:17:15.766Z,3.400
2023-01-05T00:18:15.063Z,3.599
2023-01-05T00:20:15.756Z,3.400
2023-01-05T00:21:15.273Z,3.599
2023-01-05T00:22:15.615Z,3.400
2023-01-05T00:24:15.025Z,3.200
2023-01-05T00:25:15.718Z,3.400
2023-01-05T00:26:14.048Z,3.5
2023-01-05T00:27:15.907Z,3.400
2023-01-05T00:29:15.603Z,3.200
2023-01-05T00:30:16.028Z,3.400
2023-01-05T00:31:15.680Z,3.5
2023-01-05T00:32:16.036Z,3.799
2023-01-05T00:33:15.666Z,3.099
2023-01-05T00:34:15.264Z,3.400
2023-01-05T00:36:15.710Z,3.5
2023-01-05T00:37:15.726Z,3.299
2023-01-05T00:38:15.278Z,3.5
2023-01-05T00:39:15.168Z,3.599
2023-01-05T00:41:14.912Z,3.200
2023-01-05T00:42:15.560Z,3.599
2023-01-05T00:43:15.904Z,3.700
2023-01-05T00:44:15.552Z,3.400
2023-01-05T00:45:15.562Z,3.599
2023-01-05T00:46:15.799Z,3.400
2023-01-05T00:47:15.155Z,3.5
2023-01-05T00:48:14.911Z,3.599
2023-01-05T00:49:14.817Z,3.799
2023-01-05T00:50:14.746Z,3.700
2023-01-05T00:51:15.359Z,3.599
2023-01-05T00:52:15.189Z,3.5
2023-01-05T00:53:15.335Z,3.900
2023-01-05T00:54:15.376Z,4
2023-01-05T00:55:15.451Z,3.599
2023-01-05T00:57:14.780Z,3.200
2023-01-05T00:58:15.680Z,3.5
2023-01-05T00:59:15.969Z,3.700
2023-01-05T01:00:15.616Z,3.400
2023-01-05T01:01:17.121Z,3.299
2023-01-05T01:02:15.927Z,3.700
2023-01-05T01:03:15.634Z,3.599
2023-01-05T01:04:14.039Z,3.799
2023-01-05T01:05:15.490Z,3.5
2023-01-05T01:08:15.434Z,3.700
2023-01-05T01:09:15.456Z,3.900
2023-01-05T01:10:15.749Z,3.599
2023-01-05T01:11:15.064Z,3.700
2023-01-05T01:12:15.545Z,3.299
2023-01-05T01:13:15.616Z,4
2023-01-05T01:14:15.574Z,3.5
2023-01-05T01:15:15.490Z,3.799
2023-01-05T01:16:15.195Z,3.5
2023-01-05T01:17:15.902Z,3.400
2023-01-05T01:18:14.939Z,3.5
2023-01-05T01:19:14.952Z,3.400
2023-01-05T01:20:14.852Z,3.299
2023-01-05T01:21:15.012Z,3.599
2023-01-05T01:22:14.820Z,3.700
2023-01-05T01:23:15.167Z,3.400
2023-01-05T01:24:15.127Z,3.700
2023-01-05T01:25:15.259Z,3.299
2023-01-05T01:26:15.045Z,3.799
2023-01-05T01:27:15.378Z,4
2023-01-05T01:28:15.720Z,3.5
2023-01-05T01:29:15.975Z,3.700
2023-01-05T01:30:15.674Z,3.599
2023-01-05T01:31:14.511Z,3.299
2023-01-05T01:32:15.718Z,3.200
2023-01-05T01:33:15.875Z,3.599
2023-01-05T01:34:14.714Z,3.700
2023-01-05T01:35:16.095Z,3.200
2023-01-05T01:36:14.992Z,3.5
2023-01-05T01:37:15.064Z,3.400
2023-01-05T01:38:15.048Z,3.799
2023-01-05T01:40:14.978Z,3.200
2023-01-05T01:41:14.824Z,3.900
2023-01-05T01:42:15.047Z,3.599
2023-01-05T01:43:15.201Z,3.900
2023-01-05T01:44:15.049Z,3.299
2023-01-05T01:46:15.526Z,3.700
2023-01-05T01:47:16.095Z,3.299
2023-01-05T01:48:15.311Z,3.599
2023-01-05T01:49:15.814Z,3.099
2023-01-05T01:50:15.571Z,3.5
2023-01-05T01:51:15.108Z,3.700
2023-01-05T01:52:15.358Z,3.900
2023-01-05T01:53:15.371Z,3.299
2023-01-05T01:54:15.261Z,3.599
2023-01-05T01:55:15.671Z,3.799
2023-01-05T01:56:15.465Z,3.5
2023-01-05T01:57:15.739Z,3.599
2023-01-05T01:58:16.009Z,3.700
2023-01-05T01:59:15.305Z,3.299
2023-01-05T02:00:16.130Z,3.5
2023-01-05T02:01:15.598Z,3.299
2023-01-05T02:02:15.333Z,3.5
2023-01-05T02:03:15.819Z,3.599
2023-01-05T02:04:14.238Z,3.5
2023-01-05T02:05:15.191Z,3.599
2023-01-05T02:06:14.971Z,3.799
2023-01-05T02:07:14.597Z,3.299
2023-01-05T02:08:15.542Z,3.799
2023-01-05T02:10:15.930Z,3.700
2023-01-05T02:11:14.772Z,3.799
2023-01-05T02:12:14.942Z,3.700
2023-01-05T02:13:15.242Z,3.200
2023-01-05T02:14:15.265Z,3.700
2023-01-05T02:15:15.304Z,3.400
2023-01-05T02:16:14.954Z,3.700
2023-01-05T02:17:14.889Z,4.099
2023-01-05T02:18:15.713Z,3.599
2023-01-05T02:19:15.707Z,4
2023-01-05T02:21:17.268Z,3.700
2023-01-05T02:22:15.188Z,3.900
2023-01-05T02:23:14.983Z,3.5
2023-01-05T02:24:14.727Z,4
2023-01-05T02:25:15.364Z,3.700
2023-01-05T02:26:15.947Z,3.900
2023-01-05T02:28:15.698Z,3.799
2023-01-05T02:29:15.615Z,3.400
2023-01-05T02:30:15.680Z,3.599
2023-01-05T02:32:15.538Z,4
2023-01-05T02:33:15.391Z,3.900
2023-01-05T02:34:15.318Z,4.099
2023-01-05T02:35:15.906Z,3.799
2023-01-05T02:36:15.363Z,4
2023-01-05T02:37:15.592Z,3.900
2023-01-05T02:39:15.664Z,4.400
2023-01-05T02:40:15.617Z,3.599
2023-01-05T02:41:15.656Z,3.799
2023-01-05T02:42:15.838Z,3.900
2023-01-05T02:43:15.863Z,3.599
2023-01-05T02:45:16.361Z,3.700
2023-01-05T02:46:15.678Z,3.5
2023-01-05T02:47:15.804Z,4.099
2023-01-05T02:48:15.202Z,3.799
2023-01-05T02:49:15.274Z,3.599
2023-01-05T02:51:15.535Z,3.799
2023-01-05T02:52:15.388Z,3.599
2023-01-05T02:54:14.761Z,3.5
2023-01-05T02:55:15.943Z,3.900
2023-01-05T02:56:15.782Z,4.099
2023-01-05T02:57:15.061Z,4.300
2023-01-05T02:58:14.842Z,3.900
2023-01-05T02:59:15.613Z,3.599
2023-01-05T03:00:16.421Z,3.700
2023-01-05T03:01:15.620Z,3.5
2023-01-05T03:02:15.699Z,3.799
2023-01-05T03:03:15.415Z,4
2023-01-05T03:04:15.067Z,4.099
2023-01-05T03:05:15.321Z,3.700
2023-01-05T03:06:15.005Z,3.799
2023-01-05T03:07:15.320Z,3.599
2023-01-05T03:09:15.395Z,3.200
2023-01-05T03:11:15.520Z,3.700
2023-01-05T03:12:15.862Z,3.900
2023-01-05T03:13:15.333Z,3.599
2023-01-05T03:14:15.744Z,3.5
2023-01-05T03:15:16.368Z,3.799
2023-01-05T03:16:15.589Z,4
2023-01-05T03:17:15.914Z,4.099
2023-01-05T03:18:15.039Z,3.599
2023-01-05T03:19:15.766Z,3.700
2023-01-05T03:20:15.494Z,3.400
2023-01-05T03:21:15.605Z,3.700
2023-01-05T03:22:15.034Z,3.599
2023-01-05T03:23:15.268Z,3.700
2023-01-05T03:24:15.083Z,3.400
2023-01-05T03:25:15.262Z,3.799
2023-01-05T03:27:15.718Z,3.599
2023-01-05T03:28:15.530Z,4
2023-01-05T03:29:14.694Z,4.199
2023-01-05T03:30:15.688Z,3.599
2023-01-05T03:31:15.780Z,4
2023-01-05T03:32:15.767Z,3.799
2023-01-05T03:33:15.545Z,3.900
2023-01-05T03:35:15.394Z,4.099
2023-01-05T03:36:15.439Z,4.300
2023-01-05T03:37:15.509Z,3.799
2023-01-05T03:38:18.268Z,4
2023-01-05T03:39:16.037Z,3.900
2023-01-05T03:40:16.098Z,3.599
2023-01-05T03:42:15.082Z,4.199
2023-01-05T03:43:14.988Z,4.400
2023-01-05T03:44:15.023Z,3.900
2023-01-05T03:45:15.582Z,4.300
2023-01-05T03:46:15.594Z,3.700
2023-01-05T03:47:15.311Z,3.599
2023-01-05T03:48:15.542Z,4.400
2023-01-05T03:49:15.570Z,4.099
2023-01-05T03:50:15.618Z,3.799
2023-01-05T03:51:15.980Z,4.300
2023-01-05T03:52:15.223Z,3.799
2023-01-05T03:53:15.611Z,4.199
2023-01-05T03:54:15.783Z,4
2023-01-05T03:55:15.259Z,4.099
2023-01-05T03:58:15.600Z,4.199
2023-01-05T03:59:15.468Z,3.700
2023-01-05T04:00:16.348Z,4.099
2023-01-05T04:01:15.653Z,4.5
2023-01-05T04:02:15.498Z,4.099
2023-01-05T04:04:15.404Z,4.300
2023-01-05T04:05:15.595Z,3.900
2023-01-05T04:06:15.177Z,4.099
2023-01-05T04:08:15.498Z,4.300
2023-01-05T04:09:15.710Z,4.199
2023-01-05T04:10:15.927Z,4
2023-01-05T04:11:15.134Z,4.199
2023-01-05T04:12:15.154Z,3.900
2023-01-05T04:13:14.909Z,3.799
2023-01-05T04:14:14.499Z,4
2023-01-05T04:15:15.695Z,4.599
2023-01-05T04:16:15.273Z,4.199
2023-01-05T04:17:37.233Z,3.799
2023-01-05T04:18:15.257Z,4.400
2023-01-05T04:19:37.455Z,3.700
2023-01-05T04:20:15.380Z,3.5
2023-01-05T04:21:15.349Z,3.900
2023-01-05T04:22:15.457Z,4.400
2023-01-05T04:23:15.333Z,4
2023-01-05T04:24:15.293Z,4.400
2023-01-05T04:25:15.623Z,3.900
2023-01-05T04:26:15.808Z,4.300
2023-01-05T04:27:15.106Z,3.700
2023-01-05T04:28:14.848Z,3.799
2023-01-05T04:29:14.927Z,3.700
2023-01-05T04:30:15.674Z,4.400
2023-01-05T04:31:14.683Z,3.900
2023-01-05T04:32:15.811Z,4.400
2023-01-05T04:33:14.717Z,3.799
2023-01-05T04:34:15.500Z,5.099
2023-01-05T04:35:15.457Z,4.099
2023-01-05T04:36:15.477Z,3.700
2023-01-05T04:37:15.494Z,4.400
2023-01-05T04:38:15.114Z,4.300
2023-01-05T04:39:15.238Z,4.099
2023-01-05T04:41:15.330Z,4.300
2023-01-05T04:42:15.414Z,4
2023-01-05T04:43:15.484Z,4.5
2023-01-05T04:44:15.451Z,3.799
2023-01-05T04:45:15.506Z,4.199
2023-01-05T04:46:15.697Z,4.400
2023-01-05T04:47:14.987Z,4
2023-01-05T04:48:15.040Z,4.599
2023-01-05T04:49:15.380Z,4.099
2023-01-05T04:50:15.770Z,4
2023-01-05T04:52:15.428Z,4.5
2023-01-05T04:53:15.433Z,4
2023-01-05T04:54:14.973Z,4.400
2023-01-05T04:56:14.951Z,4.099
2023-01-05T04:57:14.981Z,3.799
2023-01-05T04:58:14.733Z,4.300
2023-01-05T04:59:15.905Z,3.900
2023-01-05T05:00:15.691Z,3.799
2023-01-05T05:02:15.908Z,4.199
2023-01-05T05:03:15.085Z,4.5
2023-01-05T05:04:15.525Z,4.300
2023-01-05T05:05:15.756Z,4.5
2023-01-05T05:06:14.749Z,3.799
2023-01-05T05:07:15.972Z,4.099
2023-01-05T05:08:16.541Z,4.300
2023-01-05T05:09:14.934Z,4.599
2023-01-05T05:10:14.937Z,4.300
2023-01-05T05:11:15.139Z,4.099
2023-01-05T05:12:15.159Z,4.199
2023-01-05T05:13:14.861Z,4.400
2023-01-05T05:14:14.997Z,4.300
2023-01-05T05:15:14.732Z,4.400
2023-01-05T05:16:15.888Z,4
2023-01-05T05:17:15.931Z,4.400
2023-01-05T05:18:15.736Z,4.199
2023-01-05T05:19:14.662Z,4.099
2023-01-05T05:20:15.848Z,4.300
2023-01-05T05:21:15.003Z,4.5
2023-01-05T05:23:15.409Z,4.099
2023-01-05T05:24:15.407Z,4.199
2023-01-05T05:26:15.995Z,4.5
2023-01-05T05:27:15.010Z,4.800
2023-01-05T05:28:14.806Z,4.300
2023-01-05T05:29:15.870Z,4.400
2023-01-05T05:30:16.023Z,4.5
2023-01-05T05:31:14.971Z,4.300
2023-01-05T05:32:14.965Z,4.800
2023-01-05T05:33:15.153Z,4.5
2023-01-05T05:34:14.955Z,4.400
2023-01-05T05:35:16.112Z,4.300
2023-01-05T05:36:15.075Z,4.599
2023-01-05T05:37:15.342Z,4.5
2023-01-05T05:38:14.817Z,4.400
2023-01-05T05:40:15.491Z,4.599
2023-01-05T05:41:15.083Z,4.099
2023-01-05T05:42:14.951Z,4.199
2023-01-05T05:43:14.610Z,4.099
2023-01-05T05:45:16.092Z,4.199
2023-01-05T05:46:15.062Z,4.099
2023-01-05T05:47:15.154Z,4
2023-01-05T05:48:14.930Z,4.300
2023-01-05T05:49:15.208Z,4.5
2023-01-05T05:50:15.187Z,4.400
2023-01-05T05:51:15.227Z,3.900
2023-01-05T05:52:15.411Z,4.099
2023-01-05T05:53:15.497Z,4.599
2023-01-05T05:54:14.759Z,4.5
2023-01-05T05:55:16.029Z,4.900
2023-01-05T05:56:14.920Z,4.699
2023-01-05T05:57:14.988Z,4.400
2023-01-05T05:59:14.865Z,4.800
2023-01-05T06:00:16.412Z,4.300
2023-01-05T06:01:15.901Z,4.800
2023-01-05T06:02:20.674Z,4.400
2023-01-05T06:03:15.730Z,4.5
2023-01-05T06:04:15.114Z,4.099
2023-01-05T06:05:15.466Z,4.300
2023-01-05T06:06:24.029Z,4.400
2023-01-05T06:07:15.301Z,4.5
2023-01-05T06:08:15.363Z,4.900
2023-01-05T06:09:16.704Z,4.800
2023-01-05T06:10:15.996Z,4.599
2023-01-05T06:11:16.030Z,5
2023-01-05T06:12:15.366Z,4.599
2023-01-05T06:13:16.072Z,4.199
2023-01-05T06:15:15.891Z,4
2023-01-05T06:16:30.025Z,4.199
2023-01-05T06:17:17.206Z,3.700
2023-01-05T06:18:15.310Z,3.799
2023-01-05T06:19:15.619Z,4.400
2023-01-05T06:20:15.496Z,3.799
2023-01-05T06:21:15.378Z,4.199
2023-01-05T06:22:16.419Z,3.599
2023-01-05T06:23:16.081Z,4.300
2023-01-05T06:24:16.104Z,4.400
2023-01-05T06:25:16.111Z,4.199
2023-01-05T06:26:15.353Z,4
2023-01-05T06:27:15.046Z,4.5
2023-01-05T06:28:20.109Z,4.699
2023-01-05T06:29:15.529Z,4.199
2023-01-05T06:30:16.088Z,4.300
2023-01-05T06:31:15.851Z,4.099
2023-01-05T06:32:34.466Z,4.300
2023-01-05T06:33:16.313Z,4.099
2023-01-05T06:34:15.978Z,4.599
2023-01-05T06:35:16.225Z,4.300
2023-01-05T06:36:15.559Z,4.099
2023-01-05T06:37:16.091Z,4.800
2023-01-05T06:38:14.983Z,4.400
2023-01-05T06:39:15.522Z,4.599
2023-01-05T06:40:15.330Z,4.300
2023-01-05T06:41:15.556Z,4.400
2023-01-05T06:42:18.938Z,4.599
2023-01-05T06:44:15.318Z,4.800
2023-01-05T06:45:16.445Z,4
2023-01-05T06:46:16.199Z,4.5
2023-01-05T06:47:16.614Z,4.199
2023-01-05T06:48:16.197Z,4.400
2023-01-05T06:49:15.171Z,4.5
2023-01-05T06:50:15.815Z,4.900
2023-01-05T06:52:16.807Z,4.599
2023-01-05T06:53:15.018Z,4.300
2023-01-05T06:54:15.164Z,4.099
2023-01-05T06:55:15.881Z,4.599
2023-01-05T06:56:15.439Z,4.699
2023-01-05T06:58:16.007Z,4.800
2023-01-05T06:59:15.286Z,4.599
2023-01-05T07:01:16.450Z,4.800
2023-01-05T07:02:16.450Z,4.699
2023-01-05T07:03:15.816Z,4.5
2023-01-05T07:04:15.929Z,4.599
2023-01-05T07:05:17.019Z,4.699
2023-01-05T07:06:15.624Z,5.199
2023-01-05T07:07:15.723Z,4.800
2023-01-05T07:08:16.374Z,4.699
2023-01-05T07:09:15.984Z,5.400
2023-01-05T07:10:15.467Z,5.300
2023-01-05T07:11:16.044Z,5.199
2023-01-05T07:12:16.001Z,4.599
2023-01-05T07:13:16.474Z,4.699
2023-01-05T07:14:16.082Z,5.099
2023-01-05T07:15:16.573Z,5
2023-01-05T07:16:15.834Z,4.599
2023-01-05T07:17:15.358Z,4.5
2023-01-05T07:19:16.141Z,5
2023-01-05T07:20:15.637Z,4.900
2023-01-05T07:21:16.011Z,4.699
2023-01-05T07:22:15.681Z,4.900
2023-01-05T07:23:15.738Z,4.400
2023-01-05T07:24:15.714Z,4.800
2023-01-05T07:25:16.001Z,5.099
2023-01-05T07:26:15.134Z,4.800
2023-01-05T07:27:15.628Z,4.699
2023-01-05T07:28:15.619Z,4.900
2023-01-05T07:29:15.808Z,4.800
2023-01-05T07:30:16.234Z,4.699
2023-01-05T07:31:16.008Z,5
2023-01-05T07:32:15.473Z,4.300
2023-01-05T07:33:15.759Z,4.699
2023-01-05T07:35:15.402Z,4.5
2023-01-05T07:36:14.792Z,4.699
2023-01-05T07:37:15.188Z,4.300
2023-01-05T07:38:15.206Z,4.400
2023-01-05T07:39:15.876Z,4.699
2023-01-05T07:40:15.226Z,4.800
2023-01-05T07:41:16.024Z,4.5
2023-01-05T07:42:15.553Z,4.900
2023-01-05T07:43:15.381Z,4.599
2023-01-05T07:44:15.947Z,4.5
2023-01-05T07:45:15.854Z,4.800
2023-01-05T07:46:15.544Z,4.699
2023-01-05T07:47:16.119Z,5
2023-01-05T07:48:23.284Z,5.400
2023-01-05T07:49:16.525Z,5.300
2023-01-05T07:50:16.104Z,4.699
2023-01-05T07:51:16.454Z,4.900
2023-01-05T07:52:15.945Z,5.5
2023-01-05T07:53:16.035Z,5.300
2023-01-05T07:54:15.900Z,5.400
2023-01-05T07:55:16.572Z,5.099
2023-01-05T07:56:15.561Z,5
2023-01-05T07:57:16.662Z,5.099
2023-01-05T07:58:16.373Z,4.599
2023-01-05T07:59:16.239Z,5.5
2023-01-05T08:00:17.156Z,5.199
2023-01-05T08:01:16.491Z,5
2023-01-05T08:02:15.785Z,4.900
2023-01-05T08:03:15.840Z,4.699
2023-01-05T08:04:16.485Z,5.599
2023-01-05T08:05:16.407Z,5.199
2023-01-05T08:06:15.883Z,5.099
2023-01-05T08:07:16.628Z,4.800
2023-01-05T08:08:22.244Z,4.699
2023-01-05T08:10:15.835Z,5
2023-01-05T08:11:15.649Z,5.199
2023-01-05T08:12:16.064Z,5.099
2023-01-05T08:14:15.771Z,4.5
2023-01-05T08:15:15.855Z,5
2023-01-05T08:16:16.035Z,4.599
2023-01-05T08:17:15.751Z,5
2023-01-05T08:18:16.059Z,4.900
2023-01-05T08:19:15.819Z,4.599
2023-01-05T08:20:15.579Z,5.5
2023-01-05T08:21:15.425Z,4.400
2023-01-05T08:22:16.254Z,5.400
2023-01-05T08:23:25.266Z,5.099
2023-01-05T08:24:15.937Z,5.5
2023-01-05T08:25:15.684Z,5.199
2023-01-05T08:26:15.340Z,5
2023-01-05T08:27:15.696Z,5.199
2023-01-05T08:29:15.597Z,5.300
2023-01-05T08:30:15.761Z,5.199
2023-01-05T08:32:16.394Z,5.5
2023-01-05T08:33:16.628Z,4.400
2023-01-05T08:34:15.681Z,5.199
2023-01-05T08:35:16.041Z,5.400
2023-01-05T08:36:16.333Z,5.5
2023-01-05T08:37:16.303Z,5.400
2023-01-05T08:38:16.629Z,5.800
2023-01-05T08:39:15.579Z,5.400
2023-01-05T08:40:16.076Z,5.199
2023-01-05T08:41:15.898Z,5.099
2023-01-05T08:42:16.413Z,5.5
2023-01-05T08:44:16.122Z,5.800
2023-01-05T08:45:16.756Z,5
2023-01-05T08:47:30.541Z,5.599
2023-01-05T08:48:16.426Z,5.699
2023-01-05T08:49:16.074Z,5.300
2023-01-05T08:50:15.789Z,5.699
2023-01-05T08:51:16.348Z,5.199
2023-01-05T08:52:15.890Z,5.300
2023-01-05T08:53:16.217Z,5.400
2023-01-05T08:54:15.570Z,5.199
2023-01-05T08:55:16.011Z,4.900
2023-01-05T08:56:16.288Z,5.5
2023-01-05T08:59:16.504Z,4.800
2023-01-05T09:00:17.483Z,5.199
2023-01-05T09:01:15.864Z,5.300
2023-01-05T09:02:21.688Z,5.699
2023-01-05T09:03:16.422Z,6.099
2023-01-05T09:04:15.879Z,5.400
2023-01-05T09:05:15.620Z,5.199
2023-01-05T09:06:15.729Z,5.800
2023-01-05T09:07:16.143Z,5.599
2023-01-05T09:08:16.228Z,6.400
2023-01-05T09:09:16.140Z,5.900
2023-01-05T09:10:16.182Z,5
2023-01-05T09:11:15.773Z,5.5
2023-01-05T09:12:15.380Z,5.300
2023-01-05T09:13:15.569Z,5.5
2023-01-05T09:15:16.484Z,5.199
2023-01-05T09:17:16.142Z,5.800
2023-01-05T09:18:15.548Z,5.400
2023-01-05T09:19:16.033Z,6
2023-01-05T09:20:15.777Z,5.699
2023-01-05T09:22:15.677Z,5.300
2023-01-05T09:23:16.519Z,5.400
2023-01-05T09:24:15.390Z,5.5
2023-01-05T09:25:15.843Z,5.300
2023-01-05T09:26:15.537Z,5.199
2023-01-05T09:27:15.770Z,5.699
2023-01-05T09:28:15.578Z,5.5
2023-01-05T09:30:16.768Z,4.900
2023-01-05T09:31:15.530Z,5.300
2023-01-05T09:32:16.083Z,5.400
2023-01-05T09:33:16.383Z,5.5
2023-01-05T09:34:15.436Z,5.599
2023-01-05T09:35:15.336Z,5
2023-01-05T09:36:14.900Z,5.300
2023-01-05T09:37:16.730Z,5.400
2023-01-05T09:38:15.526Z,5.599
2023-01-05T09:39:16.043Z,5.400
2023-01-05T09:41:15.643Z,5.699
2023-01-05T09:42:16.288Z,5.300
2023-01-05T09:43:15.572Z,5
2023-01-05T09:44:15.279Z,5.099
2023-01-05T09:45:16.664Z,5.599
2023-01-05T09:46:15.239Z,5.699
2023-01-05T09:48:16.272Z,4.900
2023-01-05T09:49:15.994Z,5.099
2023-01-05T09:50:16.485Z,5.199
2023-01-05T09:51:15.956Z,5.699
2023-01-05T09:52:16.396Z,5.199
2023-01-05T09:53:16.576Z,5.300
2023-01-05T09:54:16.177Z,5.199
2023-01-05T09:55:15.694Z,5.5
2023-01-05T09:56:34.524Z,4.699
2023-01-05T09:57:24.350Z,4.900
2023-01-05T09:58:16.300Z,5.5
2023-01-05T09:59:16.567Z,6
2023-01-05T10:00:17.239Z,5.099
2023-01-05T10:01:16.389Z,5.199
2023-01-05T10:02:15.598Z,5.5
2023-01-05T10:03:36.556Z,4.900
2023-01-05T10:04:30.068Z,5.199
2023-01-05T10:05:16.924Z,4.900
2023-01-05T10:06:15.850Z,5.300
2023-01-05T10:07:15.960Z,4.5
2023-01-05T10:08:15.614Z,4.699
2023-01-05T10:09:15.864Z,5.400
2023-01-05T10:10:15.672Z,5.099
2023-01-05T10:11:16.133Z,4.900
2023-01-05T10:12:16.035Z,5.099
2023-01-05T10:13:16.571Z,4.800
2023-01-05T10:14:15.528Z,4.699
2023-01-05T10:15:16.242Z,4.900
2023-01-05T10:16:16.429Z,5
2023-01-05T10:17:40.585Z,4.5
2023-01-05T10:18:16.993Z,5.199
2023-01-05T10:19:16.196Z,5.099
2023-01-05T10:20:16.415Z,5.199
2023-01-05T10:21:16.220Z,4.900
2023-01-05T10:22:16.265Z,4.800
2023-01-05T10:23:16.393Z,5
2023-01-05T10:24:16.666Z,4.300
2023-01-05T10:25:16.354Z,4.900
2023-01-05T10:26:15.577Z,5.400
2023-01-05T10:27:25.041Z,4.800
2023-01-05T10:28:16.177Z,5.099
2023-01-05T10:30:16.016Z,5
2023-01-05T10:34:16.385Z,4.900
2023-01-05T10:35:41.992Z,4.400
2023-01-05T10:36:19.357Z,5
2023-01-05T10:37:15.944Z,4.900
2023-01-05T10:38:16.145Z,4.699
2023-01-05T10:39:16.308Z,4.599
2023-01-05T10:40:16.556Z,5.300
2023-01-05T10:41:15.892Z,4.599
2023-01-05T10:42:15.223Z,4.800
2023-01-05T10:43:16.583Z,4.300
2023-01-05T10:44:15.605Z,5
2023-01-05T10:45:16.074Z,4.900
2023-01-05T10:46:39.945Z,4.400
2023-01-05T10:47:16.740Z,4.300
2023-01-05T10:48:15.907Z,5
2023-01-05T10:49:16.065Z,5.199
2023-01-05T10:50:15.865Z,4.599
2023-01-05T10:53:16.848Z,4.699
2023-01-05T10:55:16.449Z,4.900
2023-01-05T10:56:15.867Z,4.599
2023-01-05T10:59:15.874Z,4.300
2023-01-05T11:00:16.978Z,4.400
2023-01-05T11:01:16.565Z,4.800
2023-01-05T11:02:15.957Z,4.900
2023-01-05T11:03:16.577Z,4.599
2023-01-05T11:04:35.083Z,4.699
2023-01-05T11:05:16.161Z,5
2023-01-05T11:06:16.527Z,4.800
2023-01-05T11:07:16.349Z,5
2023-01-05T11:08:16.346Z,4.900
2023-01-05T11:09:20.282Z,4.5
2023-01-05T11:10:16.887Z,4.599
2023-01-05T11:11:15.778Z,4.699
2023-01-05T11:12:15.608Z,4.599
2023-01-05T11:13:15.957Z,4.699
2023-01-05T11:14:15.947Z,4.5
2023-01-05T11:15:16.519Z,4.300
2023-01-05T11:16:16.576Z,4.5
2023-01-05T11:17:16.164Z,4.699
2023-01-05T11:18:15.911Z,4.400
2023-01-05T11:19:16.232Z,4.5
2023-01-05T11:20:16.418Z,5
2023-01-05T11:22:15.670Z,4.900
2023-01-05T11:23:15.685Z,5
2023-01-05T11:24:15.544Z,4.699
2023-01-05T11:25:16.136Z,4.300
2023-01-05T11:27:15.960Z,4.599
2023-01-05T11:28:15.675Z,4.400
2023-01-05T11:29:15.796Z,4.699
2023-01-05T11:30:16.449Z,4.300
2023-01-05T11:31:16.209Z,4.199
2023-01-05T11:32:15.836Z,4.699
2023-01-05T11:33:18.625Z,4.400
2023-01-05T11:34:16.328Z,4.599
2023-01-05T11:35:16.568Z,4.400
2023-01-05T11:37:15.950Z,4.699
2023-01-05T11:38:15.884Z,4.400
2023-01-05T11:39:16.335Z,4.300
2023-01-05T11:40:16.395Z,4.5
2023-01-05T11:41:16.439Z,4.300
2023-01-05T11:42:21.579Z,4.800
2023-01-05T11:43:16.018Z,5
2023-01-05T11:44:15.824Z,3.799
2023-01-05T11:45:16.016Z,4
2023-01-05T11:46:16.402Z,4.300
2023-01-05T11:47:15.465Z,4.199
2023-01-05T11:48:15.908Z,3.700
2023-01-05T11:49:16.390Z,4.599
2023-01-05T11:50:16.463Z,4.099
2023-01-05T11:51:15.512Z,4
2023-01-05T11:52:16.176Z,4.099
2023-01-05T11:53:15.877Z,4.800
2023-01-05T11:54:15.932Z,4.699
2023-01-05T11:55:16.234Z,4.800
2023-01-05T11:56:15.714Z,4.599
2023-01-05T11:57:16.286Z,4.099
2023-01-05T11:58:16.123Z,4.300
2023-01-05T11:59:16.434Z,4.5
2023-01-05T12:00:16.467Z,4.199
2023-01-05T12:02:16.961Z,4.400
2023-01-05T12:03:16.546Z,3.700
2023-01-05T12:04:15.637Z,4.900
2023-01-05T12:05:16.367Z,4.199
2023-01-05T12:06:16.138Z,4.699
2023-01-05T12:07:16.565Z,4
2023-01-05T12:08:15.532Z,4.300
2023-01-05T12:09:15.495Z,4.599
2023-01-05T12:12:15.410Z,5
2023-01-05T12:13:15.495Z,4.400
2023-01-05T12:15:15.810Z,4.199
2023-01-05T12:16:15.557Z,4.099
2023-01-05T12:17:15.692Z,3.700
2023-01-05T12:18:16.076Z,4.199
2023-01-05T12:19:16.309Z,3.799
2023-01-05T12:20:16.422Z,4
2023-01-05T12:21:16.470Z,4.300
2023-01-05T12:22:16.356Z,4.400
2023-01-05T12:23:16.467Z,4.199
2023-01-05T12:24:16.058Z,4
2023-01-05T12:25:16.533Z,4.199
2023-01-05T12:26:16.381Z,4.400
2023-01-05T12:27:16.457Z,4.099
2023-01-05T12:28:29.276Z,4.400
2023-01-05T12:34:15.939Z,4.400
2023-01-05T12:35:15.756Z,3.799
2023-01-05T12:36:15.730Z,4.300
2023-01-05T12:37:16.038Z,4.099
2023-01-05T12:38:15.984Z,4
2023-01-05T12:39:16.098Z,3.900
2023-01-05T12:40:16.330Z,4
2023-01-05T12:41:15.593Z,4.400
2023-01-05T12:42:15.104Z,3.900
2023-01-05T12:43:16.326Z,4
2023-01-05T12:44:16.044Z,4.099
2023-01-05T12:45:16.247Z,4.199
2023-01-05T12:46:15.822Z,3.799
2023-01-05T12:47:16.255Z,4.800
2023-01-05T12:48:16.071Z,4.300
2023-01-05T12:50:16.413Z,3.900
2023-01-05T12:51:15.924Z,4.5
2023-01-05T12:52:15.761Z,4.699
2023-01-05T12:53:16.120Z,4.400
2023-01-05T12:54:16.648Z,4.300
2023-01-05T12:55:16.076Z,4.199
2023-01-05T12:56:15.701Z,4.400
2023-01-05T12:57:16.052Z,4.699
2023-01-05T12:58:16.145Z,3.799
2023-01-05T12:59:15.973Z,4
2023-01-05T13:00:17.123Z,4.400
2023-01-05T13:01:16.797Z,4.5
2023-01-05T13:02:16.840Z,4.099
2023-01-05T13:04:15.718Z,4.199
2023-01-05T13:05:16.197Z,4.400
2023-01-05T13:06:16.548Z,4.699
2023-01-05T13:07:15.536Z,4.199
2023-01-05T13:08:15.893Z,4
2023-01-05T13:09:16.286Z,4.099
2023-01-05T13:10:16.647Z,4.699
2023-01-05T13:11:21.189Z,4.900
2023-01-05T13:12:16.412Z,4.300
2023-01-05T13:13:16.157Z,4.699
2023-01-05T13:14:16.111Z,4.599
2023-01-05T13:15:21.602Z,4.400
2023-01-05T13:16:15.673Z,4.599
2023-01-05T13:17:16.560Z,4.5
2023-01-05T13:18:16.203Z,4.900
2023-01-05T13:19:16.546Z,4.699
2023-01-05T13:20:16.386Z,4.5
2023-01-05T13:21:16.160Z,4.900
2023-01-05T13:22:15.891Z,4.599
2023-01-05T13:23:16.478Z,4.800
2023-01-05T13:24:16.176Z,4.199
2023-01-05T13:25:16.881Z,4.5
2023-01-05T13:26:16.429Z,3.900
2023-01-05T13:27:15.990Z,4.699
2023-01-05T13:28:16.266Z,5.099
2023-01-05T13:29:16.380Z,4.599
2023-01-05T13:30:16.850Z,4.400
2023-01-05T13:31:17.672Z,4.699
2023-01-05T13:32:16.492Z,4.5
2023-01-05T13:33:30.505Z,4.099
2023-01-05T13:34:15.956Z,4.699
2023-01-05T13:36:16.203Z,4.400
2023-01-05T13:37:16.053Z,4.599
2023-01-05T13:39:16.024Z,4.5
2023-01-05T13:40:16.505Z,4.900
2023-01-05T13:41:15.388Z,4.800
2023-01-05T13:42:15.933Z,5
2023-01-05T13:43:16.702Z,4.5
2023-01-05T13:44:15.843Z,4.199
2023-01-05T13:45:16.519Z,4.800
2023-01-05T13:46:16.145Z,4.599
2023-01-05T13:47:16.669Z,4.900
2023-01-05T13:49:16.114Z,4.599
2023-01-05T13:50:16.483Z,4.199
2023-01-05T13:51:15.744Z,4.599
2023-01-05T13:52:16.163Z,4.699
2023-01-05T13:53:16.662Z,4.599
2023-01-05T13:54:16.024Z,5
2023-01-05T13:55:25.200Z,4.5
2023-01-05T13:56:15.957Z,4.900
2023-01-05T13:58:16.090Z,5.099
2023-01-05T13:59:24.637Z,4.900
2023-01-05T14:00:17.242Z,4.300
2023-01-05T14:01:16.260Z,4
2023-01-05T14:02:16.265Z,4.400
2023-01-05T14:04:15.969Z,4.099
2023-01-05T14:05:16.521Z,4.5
2023-01-05T14:06:15.958Z,4.400
2023-01-05T14:07:16.537Z,4.199
2023-01-05T14:08:15.283Z,4.300
2023-01-05T14:09:16.154Z,4.400
2023-01-05T14:10:16.700Z,4.800
2023-01-05T14:11:15.960Z,5
2023-01-05T14:12:16.156Z,4.400
2023-01-05T14:13:16.659Z,4.599
2023-01-05T14:14:16.706Z,4.400
2023-01-05T14:15:16.220Z,4.199
2023-01-05T14:17:15.919Z,4.900
2023-01-05T14:18:15.367Z,4.5
2023-01-05T14:19:15.935Z,4.199
2023-01-05T14:20:16.044Z,3.799
2023-01-05T14:21:15.549Z,4.300
2023-01-05T14:23:16.475Z,4
2023-01-05T14:24:15.755Z,4.5
2023-01-05T14:25:16.118Z,4.699
2023-01-05T14:26:16.209Z,4.300
2023-01-05T14:27:15.947Z,3.900
2023-01-05T14:28:15.589Z,4
2023-01-05T14:29:15.619Z,3.900
2023-01-05T14:30:16.336Z,3.799
2023-01-05T14:31:16.384Z,4.099
2023-01-05T14:33:15.161Z,4
2023-01-05T14:34:16.037Z,4.099
2023-01-05T14:35:16.578Z,4.300
2023-01-05T14:36:16.032Z,4.199
2023-01-05T14:37:15.895Z,4.099
2023-01-05T14:38:15.442Z,4.599